sensor_id;sensor_type;location;lat;lon;timestamp;temperature;humidity
64396;DHT22;50717;53.360;6.290;2023-10-19T00:00:48;8.20;99.90
64396;DHT22;50717;53.360;6.290;2023-10-19T00:03:16;8.00;99.90
64396;DHT22;50717;53.360;6.290;2023-10-19T00:05:44;8.30;99.90
64396;DHT22;50717;53.360;6.290;2023-10-19T00:08:11;8.10;99.90
64396;DHT22;50717;53.360;6.290;2023-10-19T00:10:54;8.10;99.90
64396;DHT22;50717;53.360;6.290;2023-10-19T00:13:33;8.00;99.90
64396;DHT22;50717;53.360;6.290;2023-10-19T00:16:01;7.70;99.90
64396;DHT22;50717;53.360;6.290;2023-10-19T00:18:33;7.80;99.90
64396;DHT22;50717;53.360;6.290;2023-10-19T00:21:00;8.30;99.90
64396;DHT22;50717;53.360;6.290;2023-10-19T00:23:44;7.50;99.90
64396;DHT22;50717;53.360;6.290;2023-10-19T00:26:13;8.10;99.90
64396;DHT22;50717;53.360;6.290;2023-10-19T00:28:46;8.20;99.90
64396;DHT22;50717;53.360;6.290;2023-10-19T00:31:15;7.60;99.90
64396;DHT22;50717;53.360;6.290;2023-10-19T00:33:41;7.90;99.90
64396;DHT22;50717;53.360;6.290;2023-10-19T00:36:10;8.50;99.90
64396;DHT22;50717;53.360;6.290;2023-10-19T00:38:39;7.90;99.90
64396;DHT22;50717;53.360;6.290;2023-10-19T00:41:09;8.10;99.90
64396;DHT22;50717;53.360;6.290;2023-10-19T00:43:39;8.20;99.90
64396;DHT22;50717;53.360;6.290;2023-10-19T00:46:28;8.00;99.90
64396;DHT22;50717;53.360;6.290;2023-10-19T00:49:00;7.70;99.90
64396;DHT22;50717;53.360;6.290;2023-10-19T00:51:29;8.00;99.90
64396;DHT22;50717;53.360;6.290;2023-10-19T00:54:01;7.70;99.90
64396;DHT22;50717;53.360;6.290;2023-10-19T00:56:33;7.90;99.90
64396;DHT22;50717;53.360;6.290;2023-10-19T00:59:00;7.90;99.90
64396;DHT22;50717;53.360;6.290;2023-10-19T01:01:38;8.00;99.90
64396;DHT22;50717;53.360;6.290;2023-10-19T01:04:10;8.30;99.90
64396;DHT22;50717;53.360;6.290;2023-10-19T01:06:40;8.20;99.90
64396;DHT22;50717;53.360;6.290;2023-10-19T01:09:11;7.80;99.90
64396;DHT22;50717;53.360;6.290;2023-10-19T01:11:41;8.10;99.90
64396;DHT22;50717;53.360;6.290;2023-10-19T01:14:21;7.90;99.90
64396;DHT22;50717;53.360;6.290;2023-10-19T01:16:48;7.80;99.90
64396;DHT22;50717;53.360;6.290;2023-10-19T01:19:15;8.60;99.90
64396;DHT22;50717;53.360;6.290;2023-10-19T01:21:44;8.40;99.90
64396;DHT22;50717;53.360;6.290;2023-10-19T01:24:20;7.90;99.90
64396;DHT22;50717;53.360;6.290;2023-10-19T01:26:59;7.60;99.90
64396;DHT22;50717;53.360;6.290;2023-10-19T01:29:25;7.70;99.90
64396;DHT22;50717;53.360;6.290;2023-10-19T01:31:54;7.90;99.90
64396;DHT22;50717;53.360;6.290;2023-10-19T01:34:31;7.70;99.90
64396;DHT22;50717;53.360;6.290;2023-10-19T01:36:59;7.80;99.90
64396;DHT22;50717;53.360;6.290;2023-10-19T01:39:29;7.90;99.90
64396;DHT22;50717;53.360;6.290;2023-10-19T01:41:55;7.80;99.90
64396;DHT22;50717;53.360;6.290;2023-10-19T01:44:22;7.70;99.90
64396;DHT22;50717;53.360;6.290;2023-10-19T01:46:50;7.70;99.90
64396;DHT22;50717;53.360;6.290;2023-10-19T01:49:15;8.10;99.90
64396;DHT22;50717;53.360;6.290;2023-10-19T01:51:52;7.70;99.90
64396;DHT22;50717;53.360;6.290;2023-10-19T01:54:19;8.30;99.90
64396;DHT22;50717;53.360;6.290;2023-10-19T01:56:57;7.80;99.90
64396;DHT22;50717;53.360;6.290;2023-10-19T01:59:23;8.10;99.90
64396;DHT22;50717;53.360;6.290;2023-10-19T02:01:56;7.90;99.90
64396;DHT22;50717;53.360;6.290;2023-10-19T02:04:22;7.80;99.90
64396;DHT22;50717;53.360;6.290;2023-10-19T02:06:49;7.60;99.90
64396;DHT22;50717;53.360;6.290;2023-10-19T02:09:17;8.10;99.90
64396;DHT22;50717;53.360;6.290;2023-10-19T02:11:49;7.80;99.90
64396;DHT22;50717;53.360;6.290;2023-10-19T02:14:16;8.00;99.90
64396;DHT22;50717;53.360;6.290;2023-10-19T02:16:53;8.00;99.90
64396;DHT22;50717;53.360;6.290;2023-10-19T02:19:22;8.20;99.90
64396;DHT22;50717;53.360;6.290;2023-10-19T02:21:50;8.20;99.90
64396;DHT22;50717;53.360;6.290;2023-10-19T02:24:16;7.70;99.90
64396;DHT22;50717;53.360;6.290;2023-10-19T02:26:43;8.00;99.90
64396;DHT22;50717;53.360;6.290;2023-10-19T02:29:10;8.10;99.90
64396;DHT22;50717;53.360;6.290;2023-10-19T02:31:37;7.70;99.90
64396;DHT22;50717;53.360;6.290;2023-10-19T02:34:07;8.10;99.90
64396;DHT22;50717;53.360;6.290;2023-10-19T02:36:34;7.90;99.90
64396;DHT22;50717;53.360;6.290;2023-10-19T02:39:05;8.00;99.90
64396;DHT22;50717;53.360;6.290;2023-10-19T02:41:37;7.70;99.90
64396;DHT22;50717;53.360;6.290;2023-10-19T02:44:07;8.00;99.90
64396;DHT22;50717;53.360;6.290;2023-10-19T02:46:38;7.80;99.90
64396;DHT22;50717;53.360;6.290;2023-10-19T02:49:05;8.10;99.90
64396;DHT22;50717;53.360;6.290;2023-10-19T02:51:41;8.00;99.90
64396;DHT22;50717;53.360;6.290;2023-10-19T02:54:11;8.00;99.90
64396;DHT22;50717;53.360;6.290;2023-10-19T02:56:44;7.90;99.90
64396;DHT22;50717;53.360;6.290;2023-10-19T02:59:13;8.20;99.90
64396;DHT22;50717;53.360;6.290;2023-10-19T03:01:41;7.80;99.90
64396;DHT22;50717;53.360;6.290;2023-10-19T03:04:10;8.00;99.90
64396;DHT22;50717;53.360;6.290;2023-10-19T03:06:38;8.50;99.90
64396;DHT22;50717;53.360;6.290;2023-10-19T03:09:05;8.00;99.90
64396;DHT22;50717;53.360;6.290;2023-10-19T03:11:55;8.30;99.90
64396;DHT22;50717;53.360;6.290;2023-10-19T03:14:26;7.80;99.90
64396;DHT22;50717;53.360;6.290;2023-10-19T03:16:53;8.10;99.90
64396;DHT22;50717;53.360;6.290;2023-10-19T03:19:22;8.10;99.90
64396;DHT22;50717;53.360;6.290;2023-10-19T03:21:50;7.80;99.90
64396;DHT22;50717;53.360;6.290;2023-10-19T03:24:17;7.90;99.90
64396;DHT22;50717;53.360;6.290;2023-10-19T03:27:14;7.80;99.90
64396;DHT22;50717;53.360;6.290;2023-10-19T03:29:44;7.60;99.90
64396;DHT22;50717;53.360;6.290;2023-10-19T03:32:23;8.20;99.90
64396;DHT22;50717;53.360;6.290;2023-10-19T03:34:55;7.90;99.90
64396;DHT22;50717;53.360;6.290;2023-10-19T03:37:27;8.00;99.90
64396;DHT22;50717;53.360;6.290;2023-10-19T03:39:55;7.90;99.90
64396;DHT22;50717;53.360;6.290;2023-10-19T03:42:21;7.80;99.90
64396;DHT22;50717;53.360;6.290;2023-10-19T03:44:50;7.60;99.90
64396;DHT22;50717;53.360;6.290;2023-10-19T03:47:20;8.50;99.90
64396;DHT22;50717;53.360;6.290;2023-10-19T03:49:51;8.00;99.90
64396;DHT22;50717;53.360;6.290;2023-10-19T03:52:16;7.40;99.90
64396;DHT22;50717;53.360;6.290;2023-10-19T03:54:42;8.00;99.90
64396;DHT22;50717;53.360;6.290;2023-10-19T03:57:13;8.00;99.90
64396;DHT22;50717;53.360;6.290;2023-10-19T03:59:45;8.10;99.90
64396;DHT22;50717;53.360;6.290;2023-10-19T04:02:11;7.70;99.90
64396;DHT22;50717;53.360;6.290;2023-10-19T04:04:43;8.10;99.90
64396;DHT22;50717;53.360;6.290;2023-10-19T04:07:13;8.00;99.90
64396;DHT22;50717;53.360;6.290;2023-10-19T04:09:52;7.80;99.90
64396;DHT22;50717;53.360;6.290;2023-10-19T04:12:39;8.00;99.90
64396;DHT22;50717;53.360;6.290;2023-10-19T04:15:09;8.00;99.90
64396;DHT22;50717;53.360;6.290;2023-10-19T04:17:42;7.90;99.90
64396;DHT22;50717;53.360;6.290;2023-10-19T04:20:09;8.10;99.90
64396;DHT22;50717;53.360;6.290;2023-10-19T04:22:48;8.40;99.90
64396;DHT22;50717;53.360;6.290;2023-10-19T04:25:15;8.00;99.90
64396;DHT22;50717;53.360;6.290;2023-10-19T04:27:45;8.20;99.90
64396;DHT22;50717;53.360;6.290;2023-10-19T04:30:15;8.30;99.90
64396;DHT22;50717;53.360;6.290;2023-10-19T04:32:48;7.70;99.90
64396;DHT22;50717;53.360;6.290;2023-10-19T04:35:17;7.50;99.90
64396;DHT22;50717;53.360;6.290;2023-10-19T04:37:52;8.30;99.90
64396;DHT22;50717;53.360;6.290;2023-10-19T04:40:19;8.00;99.90
64396;DHT22;50717;53.360;6.290;2023-10-19T04:42:46;8.10;99.90
64396;DHT22;50717;53.360;6.290;2023-10-19T04:45:12;7.60;99.90
64396;DHT22;50717;53.360;6.290;2023-10-19T04:47:38;8.10;99.90
64396;DHT22;50717;53.360;6.290;2023-10-19T04:50:07;8.70;99.90
64396;DHT22;50717;53.360;6.290;2023-10-19T04:52:33;8.20;99.90
64396;DHT22;50717;53.360;6.290;2023-10-19T04:54:59;7.90;99.90
64396;DHT22;50717;53.360;6.290;2023-10-19T04:57:26;8.10;99.90
64396;DHT22;50717;53.360;6.290;2023-10-19T04:59:52;8.30;99.90
64396;DHT22;50717;53.360;6.290;2023-10-19T05:02:18;7.80;99.90
64396;DHT22;50717;53.360;6.290;2023-10-19T05:04:44;7.70;99.90
64396;DHT22;50717;53.360;6.290;2023-10-19T05:07:11;8.10;99.90
64396;DHT22;50717;53.360;6.290;2023-10-19T05:09:43;8.10;99.90
64396;DHT22;50717;53.360;6.290;2023-10-19T05:12:09;8.20;99.90
64396;DHT22;50717;53.360;6.290;2023-10-19T05:14:35;8.30;99.90
64396;DHT22;50717;53.360;6.290;2023-10-19T05:17:05;8.40;99.90
64396;DHT22;50717;53.360;6.290;2023-10-19T05:19:33;8.10;99.90
64396;DHT22;50717;53.360;6.290;2023-10-19T05:22:01;9.00;99.90
64396;DHT22;50717;53.360;6.290;2023-10-19T05:24:27;8.00;99.90
64396;DHT22;50717;53.360;6.290;2023-10-19T05:26:56;8.20;99.90
64396;DHT22;50717;53.360;6.290;2023-10-19T05:29:22;8.20;99.90
64396;DHT22;50717;53.360;6.290;2023-10-19T05:31:51;8.30;99.90
64396;DHT22;50717;53.360;6.290;2023-10-19T05:34:22;8.20;99.90
64396;DHT22;50717;53.360;6.290;2023-10-19T05:36:48;7.90;99.90
64396;DHT22;50717;53.360;6.290;2023-10-19T05:39:14;8.00;99.90
64396;DHT22;50717;53.360;6.290;2023-10-19T05:41:40;8.20;99.90
64396;DHT22;50717;53.360;6.290;2023-10-19T05:44:06;7.70;99.90
64396;DHT22;50717;53.360;6.290;2023-10-19T05:46:32;7.60;99.90
64396;DHT22;50717;53.360;6.290;2023-10-19T05:48:57;8.10;99.90
64396;DHT22;50717;53.360;6.290;2023-10-19T05:51:24;8.20;99.90
64396;DHT22;50717;53.360;6.290;2023-10-19T05:53:50;8.20;99.90
64396;DHT22;50717;53.360;6.290;2023-10-19T05:56:16;8.10;99.90
64396;DHT22;50717;53.360;6.290;2023-10-19T05:58:43;8.20;99.90
64396;DHT22;50717;53.360;6.290;2023-10-19T06:01:10;8.30;99.90
64396;DHT22;50717;53.360;6.290;2023-10-19T06:03:35;8.00;99.90
64396;DHT22;50717;53.360;6.290;2023-10-19T06:06:01;7.90;99.90
64396;DHT22;50717;53.360;6.290;2023-10-19T06:08:27;8.00;99.90
64396;DHT22;50717;53.360;6.290;2023-10-19T06:10:54;8.20;99.90
64396;DHT22;50717;53.360;6.290;2023-10-19T06:13:20;7.90;99.90
64396;DHT22;50717;53.360;6.290;2023-10-19T06:15:48;8.20;99.90
64396;DHT22;50717;53.360;6.290;2023-10-19T06:18:14;8.00;99.90
64396;DHT22;50717;53.360;6.290;2023-10-19T06:20:44;7.90;99.90
64396;DHT22;50717;53.360;6.290;2023-10-19T06:23:10;8.20;99.90
64396;DHT22;50717;53.360;6.290;2023-10-19T06:25:38;8.60;99.90
64396;DHT22;50717;53.360;6.290;2023-10-19T06:28:05;8.40;99.90
64396;DHT22;50717;53.360;6.290;2023-10-19T06:30:31;7.80;99.90
64396;DHT22;50717;53.360;6.290;2023-10-19T06:32:58;7.80;99.90
64396;DHT22;50717;53.360;6.290;2023-10-19T06:35:28;8.30;99.90
64396;DHT22;50717;53.360;6.290;2023-10-19T06:37:54;8.20;99.90
64396;DHT22;50717;53.360;6.290;2023-10-19T06:40:20;8.50;99.90
64396;DHT22;50717;53.360;6.290;2023-10-19T06:42:46;8.10;99.90
64396;DHT22;50717;53.360;6.290;2023-10-19T06:45:12;8.30;99.90
64396;DHT22;50717;53.360;6.290;2023-10-19T06:47:45;8.40;99.90
64396;DHT22;50717;53.360;6.290;2023-10-19T06:50:16;8.30;99.90
64396;DHT22;50717;53.360;6.290;2023-10-19T06:52:43;8.80;99.90
64396;DHT22;50717;53.360;6.290;2023-10-19T06:55:10;8.20;99.90
64396;DHT22;50717;53.360;6.290;2023-10-19T06:57:43;8.50;99.90
64396;DHT22;50717;53.360;6.290;2023-10-19T07:00:13;8.00;99.90
64396;DHT22;50717;53.360;6.290;2023-10-19T07:02:46;8.30;99.90
64396;DHT22;50717;53.360;6.290;2023-10-19T07:05:12;8.70;99.90
64396;DHT22;50717;53.360;6.290;2023-10-19T07:07:42;8.10;99.90
64396;DHT22;50717;53.360;6.290;2023-10-19T07:10:09;8.70;99.90
64396;DHT22;50717;53.360;6.290;2023-10-19T07:12:38;8.20;99.90
64396;DHT22;50717;53.360;6.290;2023-10-19T07:15:08;8.00;99.90
64396;DHT22;50717;53.360;6.290;2023-10-19T07:17:37;8.10;99.90
64396;DHT22;50717;53.360;6.290;2023-10-19T07:20:07;8.20;99.90
64396;DHT22;50717;53.360;6.290;2023-10-19T07:22:35;8.20;99.90
64396;DHT22;50717;53.360;6.290;2023-10-19T07:25:05;8.10;99.90
64396;DHT22;50717;53.360;6.290;2023-10-19T07:27:32;8.80;99.90
64396;DHT22;50717;53.360;6.290;2023-10-19T07:30:00;8.00;99.90
64396;DHT22;50717;53.360;6.290;2023-10-19T07:32:25;8.70;99.90
64396;DHT22;50717;53.360;6.290;2023-10-19T07:34:51;8.50;99.90
64396;DHT22;50717;53.360;6.290;2023-10-19T07:37:17;8.40;99.90
64396;DHT22;50717;53.360;6.290;2023-10-19T07:39:46;8.20;99.90
64396;DHT22;50717;53.360;6.290;2023-10-19T07:42:12;7.70;99.90
64396;DHT22;50717;53.360;6.290;2023-10-19T07:44:38;8.10;99.90
64396;DHT22;50717;53.360;6.290;2023-10-19T07:47:04;8.50;99.90
64396;DHT22;50717;53.360;6.290;2023-10-19T07:49:29;8.30;99.90
64396;DHT22;50717;53.360;6.290;2023-10-19T07:51:56;8.10;99.90
64396;DHT22;50717;53.360;6.290;2023-10-19T07:54:23;8.10;99.90
64396;DHT22;50717;53.360;6.290;2023-10-19T07:56:48;8.50;99.90
64396;DHT22;50717;53.360;6.290;2023-10-19T07:59:15;8.70;99.90
64396;DHT22;50717;53.360;6.290;2023-10-19T08:01:41;8.60;99.90
64396;DHT22;50717;53.360;6.290;2023-10-19T08:04:07;7.80;99.90
64396;DHT22;50717;53.360;6.290;2023-10-19T08:06:33;8.70;99.90
64396;DHT22;50717;53.360;6.290;2023-10-19T08:08:59;8.40;99.90
64396;DHT22;50717;53.360;6.290;2023-10-19T08:11:25;8.10;99.90
64396;DHT22;50717;53.360;6.290;2023-10-19T08:13:50;8.50;99.90
64396;DHT22;50717;53.360;6.290;2023-10-19T08:16:16;8.10;99.90
64396;DHT22;50717;53.360;6.290;2023-10-19T08:18:43;8.80;99.90
64396;DHT22;50717;53.360;6.290;2023-10-19T08:21:09;8.70;99.90
64396;DHT22;50717;53.360;6.290;2023-10-19T08:23:34;8.50;99.90
64396;DHT22;50717;53.360;6.290;2023-10-19T08:26:00;8.20;99.90
64396;DHT22;50717;53.360;6.290;2023-10-19T08:28:28;8.60;99.90
64396;DHT22;50717;53.360;6.290;2023-10-19T08:30:54;9.60;99.90
64396;DHT22;50717;53.360;6.290;2023-10-19T08:33:26;8.20;99.90
64396;DHT22;50717;53.360;6.290;2023-10-19T08:35:58;8.50;99.90
64396;DHT22;50717;53.360;6.290;2023-10-19T08:38:25;8.90;99.90
64396;DHT22;50717;53.360;6.290;2023-10-19T08:40:52;8.40;99.90
64396;DHT22;50717;53.360;6.290;2023-10-19T08:43:19;8.10;99.90
64396;DHT22;50717;53.360;6.290;2023-10-19T08:45:45;8.50;99.90
64396;DHT22;50717;53.360;6.290;2023-10-19T08:48:11;8.50;99.90
64396;DHT22;50717;53.360;6.290;2023-10-19T08:50:37;8.70;99.90
64396;DHT22;50717;53.360;6.290;2023-10-19T08:53:04;8.40;99.90
64396;DHT22;50717;53.360;6.290;2023-10-19T08:55:33;8.70;99.90
64396;DHT22;50717;53.360;6.290;2023-10-19T08:58:00;8.50;99.90
64396;DHT22;50717;53.360;6.290;2023-10-19T09:00:27;8.60;99.90
64396;DHT22;50717;53.360;6.290;2023-10-19T09:02:53;8.60;99.90
64396;DHT22;50717;53.360;6.290;2023-10-19T09:05:20;8.40;99.90
64396;DHT22;50717;53.360;6.290;2023-10-19T09:07:48;8.70;99.90
64396;DHT22;50717;53.360;6.290;2023-10-19T09:10:27;8.30;99.90
64396;DHT22;50717;53.360;6.290;2023-10-19T09:13:04;8.60;99.90
64396;DHT22;50717;53.360;6.290;2023-10-19T09:15:34;9.10;99.90
64396;DHT22;50717;53.360;6.290;2023-10-19T09:18:16;8.20;99.90
64396;DHT22;50717;53.360;6.290;2023-10-19T09:20:44;8.60;99.90
64396;DHT22;50717;53.360;6.290;2023-10-19T09:23:25;9.10;99.90
64396;DHT22;50717;53.360;6.290;2023-10-19T09:25:53;8.70;99.90
64396;DHT22;50717;53.360;6.290;2023-10-19T09:28:19;9.10;99.90
64396;DHT22;50717;53.360;6.290;2023-10-19T09:30:46;9.10;99.90
64396;DHT22;50717;53.360;6.290;2023-10-19T09:33:13;8.90;99.90
64396;DHT22;50717;53.360;6.290;2023-10-19T09:35:46;8.60;99.90
64396;DHT22;50717;53.360;6.290;2023-10-19T09:38:17;8.80;99.90
64396;DHT22;50717;53.360;6.290;2023-10-19T09:40:55;8.80;99.90
64396;DHT22;50717;53.360;6.290;2023-10-19T09:43:34;9.00;99.90
64396;DHT22;50717;53.360;6.290;2023-10-19T09:46:05;9.20;99.90
64396;DHT22;50717;53.360;6.290;2023-10-19T09:48:32;9.10;99.90
64396;DHT22;50717;53.360;6.290;2023-10-19T09:51:01;8.70;99.90
64396;DHT22;50717;53.360;6.290;2023-10-19T09:53:29;8.40;99.90
64396;DHT22;50717;53.360;6.290;2023-10-19T09:55:58;9.20;99.90
64396;DHT22;50717;53.360;6.290;2023-10-19T09:58:41;8.60;99.90
64396;DHT22;50717;53.360;6.290;2023-10-19T10:01:08;8.70;99.90
64396;DHT22;50717;53.360;6.290;2023-10-19T10:03:54;9.10;99.90
64396;DHT22;50717;53.360;6.290;2023-10-19T10:06:30;8.70;99.90
64396;DHT22;50717;53.360;6.290;2023-10-19T10:08:59;8.90;99.90
64396;DHT22;50717;53.360;6.290;2023-10-19T10:11:28;9.00;99.90
64396;DHT22;50717;53.360;6.290;2023-10-19T10:13:58;8.90;99.90
64396;DHT22;50717;53.360;6.290;2023-10-19T10:16:27;9.10;99.90
64396;DHT22;50717;53.360;6.290;2023-10-19T10:19:00;8.60;99.90
64396;DHT22;50717;53.360;6.290;2023-10-19T10:21:29;8.60;99.90
64396;DHT22;50717;53.360;6.290;2023-10-19T10:23:57;9.10;99.90
64396;DHT22;50717;53.360;6.290;2023-10-19T10:26:25;9.20;99.90
64396;DHT22;50717;53.360;6.290;2023-10-19T10:31:44;8.90;99.90
64396;DHT22;50717;53.360;6.290;2023-10-19T10:34:10;9.00;99.90
64396;DHT22;50717;53.360;6.290;2023-10-19T10:39:21;8.90;99.90
64396;DHT22;50717;53.360;6.290;2023-10-19T10:41:58;9.10;99.90
64396;DHT22;50717;53.360;6.290;2023-10-19T10:44:41;8.80;99.90
64396;DHT22;50717;53.360;6.290;2023-10-19T10:49:51;8.90;99.90
64396;DHT22;50717;53.360;6.290;2023-10-19T10:52:27;9.00;99.90
64396;DHT22;50717;53.360;6.290;2023-10-19T10:54:55;8.80;99.90
64396;DHT22;50717;53.360;6.290;2023-10-19T10:57:21;9.40;99.90
64396;DHT22;50717;53.360;6.290;2023-10-19T10:59:47;9.00;99.90
64396;DHT22;50717;53.360;6.290;2023-10-19T11:02:25;9.10;99.90
64396;DHT22;50717;53.360;6.290;2023-10-19T11:04:51;8.80;99.90
64396;DHT22;50717;53.360;6.290;2023-10-19T11:07:20;9.10;99.90
64396;DHT22;50717;53.360;6.290;2023-10-19T11:09:47;9.10;99.90
64396;DHT22;50717;53.360;6.290;2023-10-19T11:12:13;9.20;99.90
64396;DHT22;50717;53.360;6.290;2023-10-19T11:14:55;9.50;99.90
64396;DHT22;50717;53.360;6.290;2023-10-19T11:17:23;9.10;99.90
64396;DHT22;50717;53.360;6.290;2023-10-19T11:19:58;9.10;99.90
64396;DHT22;50717;53.360;6.290;2023-10-19T11:22:26;8.90;99.90
64396;DHT22;50717;53.360;6.290;2023-10-19T11:24:55;9.10;99.90
64396;DHT22;50717;53.360;6.290;2023-10-19T11:27:27;8.70;99.90
64396;DHT22;50717;53.360;6.290;2023-10-19T11:29:58;8.90;99.90
64396;DHT22;50717;53.360;6.290;2023-10-19T11:32:25;9.10;99.90
64396;DHT22;50717;53.360;6.290;2023-10-19T11:34:57;9.30;99.90
64396;DHT22;50717;53.360;6.290;2023-10-19T11:37:23;8.90;99.90
64396;DHT22;50717;53.360;6.290;2023-10-19T11:39:48;8.80;99.90
64396;DHT22;50717;53.360;6.290;2023-10-19T11:42:18;9.30;99.90
64396;DHT22;50717;53.360;6.290;2023-10-19T11:44:44;9.30;99.90
64396;DHT22;50717;53.360;6.290;2023-10-19T11:47:10;9.10;99.90
64396;DHT22;50717;53.360;6.290;2023-10-19T11:49:36;9.10;99.90
64396;DHT22;50717;53.360;6.290;2023-10-19T11:52:06;9.20;99.90
64396;DHT22;50717;53.360;6.290;2023-10-19T11:54:35;9.40;99.90
64396;DHT22;50717;53.360;6.290;2023-10-19T11:57:00;9.00;99.90
64396;DHT22;50717;53.360;6.290;2023-10-19T11:59:27;9.40;99.90
64396;DHT22;50717;53.360;6.290;2023-10-19T12:01:53;9.10;99.90
64396;DHT22;50717;53.360;6.290;2023-10-19T12:04:20;9.30;99.90
64396;DHT22;50717;53.360;6.290;2023-10-19T12:06:45;8.80;99.90
64396;DHT22;50717;53.360;6.290;2023-10-19T12:09:11;9.10;99.90
64396;DHT22;50717;53.360;6.290;2023-10-19T12:11:43;9.10;99.90
64396;DHT22;50717;53.360;6.290;2023-10-19T12:14:10;9.20;99.90
64396;DHT22;50717;53.360;6.290;2023-10-19T12:16:40;9.20;99.90
64396;DHT22;50717;53.360;6.290;2023-10-19T12:19:06;9.20;99.90
64396;DHT22;50717;53.360;6.290;2023-10-19T12:21:36;9.20;99.90
64396;DHT22;50717;53.360;6.290;2023-10-19T12:24:03;9.10;99.90
64396;DHT22;50717;53.360;6.290;2023-10-19T12:26:30;8.90;99.90
64396;DHT22;50717;53.360;6.290;2023-10-19T12:28:56;8.70;99.90
64396;DHT22;50717;53.360;6.290;2023-10-19T12:31:22;9.50;99.90
64396;DHT22;50717;53.360;6.290;2023-10-19T12:33:48;9.30;99.90
64396;DHT22;50717;53.360;6.290;2023-10-19T12:36:14;9.20;99.90
64396;DHT22;50717;53.360;6.290;2023-10-19T12:38:58;9.20;99.90
64396;DHT22;50717;53.360;6.290;2023-10-19T12:41:24;9.70;99.90
64396;DHT22;50717;53.360;6.290;2023-10-19T12:43:50;9.50;99.90
64396;DHT22;50717;53.360;6.290;2023-10-19T12:46:34;9.60;99.90
64396;DHT22;50717;53.360;6.290;2023-10-19T12:49:04;9.10;99.90
64396;DHT22;50717;53.360;6.290;2023-10-19T12:51:34;9.20;99.90
64396;DHT22;50717;53.360;6.290;2023-10-19T12:54:00;9.50;99.90
64396;DHT22;50717;53.360;6.290;2023-10-19T12:56:28;9.00;99.90
64396;DHT22;50717;53.360;6.290;2023-10-19T12:58:54;8.60;99.90
64396;DHT22;50717;53.360;6.290;2023-10-19T13:01:20;8.80;99.90
64396;DHT22;50717;53.360;6.290;2023-10-19T13:03:47;9.20;99.90
64396;DHT22;50717;53.360;6.290;2023-10-19T13:06:13;8.70;99.90
64396;DHT22;50717;53.360;6.290;2023-10-19T13:08:39;9.20;99.90
64396;DHT22;50717;53.360;6.290;2023-10-19T13:11:07;8.90;99.90
64396;DHT22;50717;53.360;6.290;2023-10-19T13:13:33;9.50;99.90
64396;DHT22;50717;53.360;6.290;2023-10-19T13:16:01;9.00;99.90
64396;DHT22;50717;53.360;6.290;2023-10-19T13:18:31;9.40;99.90
64396;DHT22;50717;53.360;6.290;2023-10-19T13:21:00;9.00;99.90
64396;DHT22;50717;53.360;6.290;2023-10-19T13:23:33;9.30;99.90
64396;DHT22;50717;53.360;6.290;2023-10-19T13:25:59;8.60;99.90
64396;DHT22;50717;53.360;6.290;2023-10-19T13:28:40;8.90;99.90
64396;DHT22;50717;53.360;6.290;2023-10-19T13:31:08;8.80;99.90
64396;DHT22;50717;53.360;6.290;2023-10-19T13:33:39;9.40;99.90
64396;DHT22;50717;53.360;6.290;2023-10-19T13:36:07;9.00;99.90
64396;DHT22;50717;53.360;6.290;2023-10-19T13:38:33;9.00;99.90
64396;DHT22;50717;53.360;6.290;2023-10-19T13:40:58;9.10;99.90
64396;DHT22;50717;53.360;6.290;2023-10-19T13:43:24;8.70;99.90
64396;DHT22;50717;53.360;6.290;2023-10-19T13:45:50;8.50;99.90
64396;DHT22;50717;53.360;6.290;2023-10-19T13:48:18;9.20;99.90
64396;DHT22;50717;53.360;6.290;2023-10-19T13:50:46;8.80;99.90
64396;DHT22;50717;53.360;6.290;2023-10-19T13:53:17;8.80;99.90
64396;DHT22;50717;53.360;6.290;2023-10-19T13:55:44;8.70;99.90
64396;DHT22;50717;53.360;6.290;2023-10-19T13:58:09;8.90;99.90
64396;DHT22;50717;53.360;6.290;2023-10-19T14:00:36;8.60;99.90
64396;DHT22;50717;53.360;6.290;2023-10-19T14:03:05;9.30;99.90
64396;DHT22;50717;53.360;6.290;2023-10-19T14:05:40;9.20;99.90
64396;DHT22;50717;53.360;6.290;2023-10-19T14:08:08;8.60;99.90
64396;DHT22;50717;53.360;6.290;2023-10-19T14:10:35;8.70;99.90
64396;DHT22;50717;53.360;6.290;2023-10-19T14:13:01;8.90;99.90
64396;DHT22;50717;53.360;6.290;2023-10-19T14:15:27;9.10;99.90
64396;DHT22;50717;53.360;6.290;2023-10-19T14:17:55;9.10;99.90
64396;DHT22;50717;53.360;6.290;2023-10-19T14:20:21;9.00;99.90
64396;DHT22;50717;53.360;6.290;2023-10-19T14:22:51;9.00;99.90
64396;DHT22;50717;53.360;6.290;2023-10-19T14:25:21;9.20;99.90
64396;DHT22;50717;53.360;6.290;2023-10-19T14:27:50;9.20;99.90
64396;DHT22;50717;53.360;6.290;2023-10-19T14:30:21;9.40;99.90
64396;DHT22;50717;53.360;6.290;2023-10-19T14:32:47;9.20;99.90
64396;DHT22;50717;53.360;6.290;2023-10-19T14:35:21;8.90;99.90
64396;DHT22;50717;53.360;6.290;2023-10-19T14:37:49;9.00;99.90
64396;DHT22;50717;53.360;6.290;2023-10-19T14:40:17;9.20;99.90
64396;DHT22;50717;53.360;6.290;2023-10-19T14:42:45;8.80;99.90
64396;DHT22;50717;53.360;6.290;2023-10-19T14:45:13;9.20;99.90
64396;DHT22;50717;53.360;6.290;2023-10-19T14:47:49;9.50;99.90
64396;DHT22;50717;53.360;6.290;2023-10-19T14:50:17;9.00;99.90
64396;DHT22;50717;53.360;6.290;2023-10-19T14:52:45;9.00;99.90
64396;DHT22;50717;53.360;6.290;2023-10-19T14:55:12;8.60;99.90
64396;DHT22;50717;53.360;6.290;2023-10-19T14:57:41;8.90;99.90
64396;DHT22;50717;53.360;6.290;2023-10-19T15:00:09;8.90;99.90
64396;DHT22;50717;53.360;6.290;2023-10-19T15:02:49;8.60;99.90
64396;DHT22;50717;53.360;6.290;2023-10-19T15:05:19;8.70;99.90
64396;DHT22;50717;53.360;6.290;2023-10-19T15:07:47;9.10;99.90
64396;DHT22;50717;53.360;6.290;2023-10-19T15:10:22;8.90;99.90
64396;DHT22;50717;53.360;6.290;2023-10-19T15:12:48;9.00;99.90
64396;DHT22;50717;53.360;6.290;2023-10-19T15:15:15;8.70;99.90
64396;DHT22;50717;53.360;6.290;2023-10-19T15:17:41;8.50;99.90
64396;DHT22;50717;53.360;6.290;2023-10-19T15:20:07;8.60;99.90
64396;DHT22;50717;53.360;6.290;2023-10-19T15:22:36;9.10;99.90
64396;DHT22;50717;53.360;6.290;2023-10-19T15:25:03;8.70;99.90
64396;DHT22;50717;53.360;6.290;2023-10-19T15:27:30;9.20;99.90
64396;DHT22;50717;53.360;6.290;2023-10-19T15:29:56;8.90;99.90
64396;DHT22;50717;53.360;6.290;2023-10-19T15:32:22;8.70;99.90
64396;DHT22;50717;53.360;6.290;2023-10-19T15:34:48;9.10;99.90
64396;DHT22;50717;53.360;6.290;2023-10-19T15:37:14;8.30;99.90
64396;DHT22;50717;53.360;6.290;2023-10-19T15:39:40;8.60;99.90
64396;DHT22;50717;53.360;6.290;2023-10-19T15:42:05;9.10;99.90
64396;DHT22;50717;53.360;6.290;2023-10-19T15:44:34;8.70;99.90
64396;DHT22;50717;53.360;6.290;2023-10-19T15:47:01;8.70;99.90
64396;DHT22;50717;53.360;6.290;2023-10-19T15:49:29;8.60;99.90
64396;DHT22;50717;53.360;6.290;2023-10-19T15:51:54;8.60;99.90
64396;DHT22;50717;53.360;6.290;2023-10-19T15:54:20;8.90;99.90
64396;DHT22;50717;53.360;6.290;2023-10-19T15:56:46;8.40;99.90
64396;DHT22;50717;53.360;6.290;2023-10-19T15:59:11;8.70;99.90
64396;DHT22;50717;53.360;6.290;2023-10-19T16:01:37;8.50;99.90
64396;DHT22;50717;53.360;6.290;2023-10-19T16:04:03;8.90;99.90